createdAt,value
2019-05-04T00:01:12.938Z,74.79
2019-05-04T00:06:16.199Z,74.99
2019-05-04T00:11:19.517Z,74.72
2019-05-04T00:16:22.573Z,74.79
2019-05-04T00:21:26.028Z,74.37
2019-05-04T00:26:30.383Z,74.76
2019-05-04T00:31:45.490Z,74.68
2019-05-04T00:37:02.254Z,74.46
2019-05-04T00:41:56.343Z,74.69
2019-05-04T00:46:59.107Z,74.47
2019-05-04T00:52:01.951Z,74.16
2019-05-04T00:57:05.265Z,74.14
2019-05-04T01:02:33.075Z,74.46
2019-05-04T01:07:36.041Z,74.71
2019-05-04T01:12:39.252Z,75.16
2019-05-04T01:17:41.984Z,75.32
2019-05-04T01:22:44.829Z,75.44
2019-05-04T01:27:47.615Z,75.23
2019-05-04T01:32:50.400Z,75.53
2019-05-04T01:38:15.442Z,75.50
2019-05-04T01:43:18.183Z,75.94
2019-05-04T01:48:21.012Z,76.00
2019-05-04T01:53:35.104Z,75.86
2019-05-04T01:58:42.185Z,75.92
2019-05-04T02:03:44.902Z,75.95
2019-05-04T02:08:59.993Z,75.67
2019-05-04T02:14:04.568Z,75.42
2019-05-04T02:19:07.407Z,75.22
2019-05-04T02:24:10.352Z,75.38
2019-05-04T02:29:31.114Z,75.31
2019-05-04T02:34:36.553Z,75.50
2019-05-04T02:39:38.456Z,75.47
2019-05-04T02:44:41.188Z,75.34
2019-05-04T02:49:56.073Z,75.23
2019-05-04T02:54:58.302Z,74.79
2019-05-04T03:00:01.076Z,74.94
2019-05-04T03:05:05.312Z,74.67
2019-05-04T03:10:08.289Z,74.80
2019-05-04T03:15:11.066Z,74.74
2019-05-04T03:20:29.619Z,74.66
2019-05-04T03:25:35.153Z,74.67
2019-05-04T03:30:40.979Z,74.67
2019-05-04T03:35:57.054Z,74.88
2019-05-04T03:40:48.409Z,75.06
2019-05-04T03:46:10.940Z,75.32
2019-05-04T03:51:17.765Z,75.26
2019-05-04T03:56:20.664Z,75.26
2019-05-04T04:01:26.041Z,75.15
2019-05-04T04:06:29.303Z,74.97
2019-05-04T04:11:32.024Z,74.84
2019-05-04T04:16:41.731Z,74.74
2019-05-04T04:21:44.913Z,74.51
2019-05-04T04:26:56.068Z,74.33
2019-05-04T04:31:57.531Z,74.58
2019-05-04T04:37:00.304Z,74.37
2019-05-04T04:42:05.815Z,74.18
2019-05-04T04:47:07.755Z,74.26
2019-05-04T04:52:10.955Z,74.22
2019-05-04T04:57:41.719Z,73.79
2019-05-04T05:02:49.607Z,73.61
2019-05-04T05:07:49.233Z,73.34
2019-05-04T05:12:51.956Z,72.89
2019-05-04T05:17:55.283Z,72.98
2019-05-04T05:22:58.172Z,72.52
2019-05-04T05:28:01.074Z,71.86
2019-05-04T05:33:14.682Z,71.46
2019-05-04T05:38:17.479Z,70.64
2019-05-04T05:43:20.388Z,70.65
2019-05-04T05:48:29.415Z,70.16
2019-05-04T05:53:49.931Z,70.62
2019-05-04T05:59:24.131Z,70.91
2019-05-04T06:04:44.567Z,71.16
2019-05-04T06:10:25.181Z,71.36
2019-05-04T06:15:24.427Z,70.62
2019-05-04T06:20:39.695Z,70.38
2019-05-04T06:25:54.629Z,70.43
2019-05-04T06:31:12.180Z,70.10
2019-05-04T06:36:39.876Z,68.85
2019-05-04T06:41:41.297Z,68.14
2019-05-04T06:46:51.489Z,68.42
2019-05-04T06:52:08.760Z,67.05
2019-05-04T06:57:22.276Z,65.37
2019-05-04T07:02:25.370Z,65.00
2019-05-04T07:07:28.150Z,64.04
2019-05-04T07:12:30.962Z,62.78
2019-05-04T07:17:35.069Z,60.67
2019-05-04T07:22:40.849Z,60.01
2019-05-04T07:27:44.228Z,60.72
2019-05-04T07:32:49.845Z,59.71
2019-05-04T07:38:04.867Z,59.62
2019-05-04T07:43:06.410Z,56.45
2019-05-04T07:48:09.328Z,55.88
2019-05-04T07:53:15.188Z,53.22
2019-05-04T07:58:16.828Z,55.60
2019-05-04T08:03:24.750Z,53.41
2019-05-04T08:08:29.404Z,51.59
2019-05-04T08:13:32.160Z,53.16
2019-05-04T08:18:35.280Z,54.34
2019-05-04T08:23:41.125Z,50.53
2019-05-04T08:28:44.577Z,52.80
2019-05-04T08:33:47.379Z,50.28
2019-05-04T08:38:50.860Z,52.65
2019-05-04T08:43:57.041Z,49.22
2019-05-04T08:48:58.404Z,48.10
2019-05-04T08:54:01.290Z,49.40
2019-05-04T08:59:10.394Z,49.40
2019-05-04T09:05:53.033Z,51.17
2019-05-04T09:09:21.038Z,53.05
2019-05-04T09:14:30.081Z,52.87
2019-05-04T09:19:27.007Z,48.34
2019-05-04T09:24:29.730Z,46.26
2019-05-04T09:29:37.343Z,43.33
2019-05-04T09:34:44.336Z,43.80
2019-05-04T09:39:47.252Z,45.03
2019-05-04T09:44:50.063Z,47.87
2019-05-04T09:49:54.623Z,48.32
2019-05-04T09:54:59.196Z,46.73
2019-05-04T10:00:06.618Z,45.09
2019-05-04T10:05:07.050Z,45.76
2019-05-04T10:10:10.011Z,47.79
2019-05-04T10:15:35.522Z,46.25
2019-05-04T10:20:38.356Z,47.71
2019-05-04T10:25:41.075Z,45.79
2019-05-04T10:30:44.241Z,45.49
2019-05-04T10:35:47.127Z,47.00
2019-05-04T10:40:49.939Z,46.80
2019-05-04T10:45:54.905Z,43.24
2019-05-04T10:50:57.304Z,44.83
2019-05-04T10:56:00.013Z,51.06
2019-05-04T11:01:02.751Z,59.30
2019-05-04T11:06:06.572Z,62.65
2019-05-04T11:11:20.415Z,62.23
2019-05-04T11:16:14.043Z,61.72
2019-05-04T11:21:16.747Z,58.23
2019-05-04T11:26:42.638Z,56.18
2019-05-04T11:31:45.441Z,54.87
2019-05-04T11:36:48.219Z,52.46
2019-05-04T11:41:50.988Z,53.22
2019-05-04T11:46:59.811Z,52.78
2019-05-04T11:51:58.371Z,51.08
2019-05-04T11:57:01.164Z,50.49
2019-05-04T12:02:04.961Z,49.49
2019-05-04T12:07:31.519Z,49.02
2019-05-04T12:12:34.297Z,47.46
2019-05-04T12:17:37.173Z,52.33
2019-05-04T12:22:39.974Z,53.37
2019-05-04T12:27:42.777Z,53.17
2019-05-04T12:32:45.735Z,53.15
2019-05-04T12:37:50.060Z,53.21
2019-05-04T12:42:54.524Z,53.49
2019-05-04T12:47:57.424Z,52.87
2019-05-04T12:53:00.166Z,52.53
2019-05-04T12:58:05.096Z,51.57
2019-05-04T13:03:07.533Z,48.17
2019-05-04T13:08:10.293Z,47.90
2019-05-04T13:13:15.150Z,45.00
2019-05-04T13:18:54.535Z,46.90
2019-05-04T13:23:57.026Z,47.16
2019-05-04T13:29:02.652Z,47.46
2019-05-04T13:34:06.824Z,58.69
2019-05-04T13:39:09.421Z,68.20
2019-05-04T13:44:15.269Z,73.38
2019-05-04T13:49:16.843Z,76.81
2019-05-04T13:54:27.225Z,78.04
2019-05-04T13:59:48.118Z,76.77
2019-05-04T14:04:56.911Z,73.73
2019-05-04T14:09:59.698Z,71.62
2019-05-04T14:15:03.486Z,69.57
2019-05-04T14:20:06.451Z,74.00
2019-05-04T14:25:09.449Z,75.44
2019-05-04T14:30:14.249Z,75.02
2019-05-04T14:35:17.221Z,76.40
2019-05-04T14:40:20.017Z,75.48
2019-05-04T14:45:54.231Z,74.55
2019-05-04T14:50:56.938Z,73.22
2019-05-04T14:55:59.672Z,70.59
2019-05-04T15:01:04.347Z,70.03
2019-05-04T15:06:07.022Z,69.54
2019-05-04T15:11:09.732Z,68.02
2019-05-04T15:16:14.629Z,68.01
2019-05-04T15:21:17.320Z,66.70
2019-05-04T15:26:20.137Z,68.34
2019-05-04T15:31:24.560Z,68.49
2019-05-04T15:36:27.556Z,68.76
2019-05-04T15:41:30.352Z,69.57
2019-05-04T15:46:35.000Z,69.97
2019-05-04T15:51:47.353Z,69.66
2019-05-04T15:56:54.984Z,69.16
2019-05-04T16:01:57.719Z,66.62
2019-05-04T16:07:00.603Z,65.54
2019-05-04T16:12:04.208Z,62.97
2019-05-04T16:17:07.173Z,62.76
2019-05-04T16:22:09.909Z,63.80
2019-05-04T16:27:15.117Z,64.14
2019-05-04T16:32:18.105Z,64.28
2019-05-04T16:37:21.136Z,65.28
2019-05-04T16:42:24.500Z,64.97
2019-05-04T16:47:28.606Z,63.16
2019-05-04T16:52:49.354Z,64.30
2019-05-04T16:57:52.179Z,63.86
2019-05-04T17:03:04.186Z,64.47
2019-05-04T17:08:07.447Z,64.19
2019-05-04T17:13:10.489Z,63.27
2019-05-04T17:18:14.584Z,64.69
2019-05-04T17:23:17.614Z,66.92
2019-05-04T17:28:22.664Z,68.45
2019-05-04T17:33:25.893Z,68.53
2019-05-04T17:38:29.226Z,69.95
2019-05-04T17:43:47.626Z,73.29
2019-05-04T17:48:50.382Z,74.88
2019-05-04T17:53:54.975Z,74.96
2019-05-04T17:58:57.714Z,77.17
2019-05-04T18:04:04.934Z,78.19
2019-05-04T18:09:08.566Z,78.64
2019-05-04T18:14:30.980Z,78.64
2019-05-04T18:19:33.830Z,79.73
2019-05-04T18:24:36.674Z,80.62
2019-05-04T18:29:40.282Z,79.67
2019-05-04T18:34:44.424Z,79.29
2019-05-04T18:39:50.822Z,79.47
2019-05-04T18:45:02.262Z,79.25
2019-05-04T18:50:06.469Z,79.53
2019-05-04T18:55:09.336Z,76.35
2019-05-04T19:00:15.783Z,76.15
2019-05-04T19:05:18.551Z,76.72
2019-05-04T19:10:21.377Z,77.19
2019-05-04T19:15:25.234Z,77.81
2019-05-04T19:20:28.125Z,78.18
2019-05-04T19:25:31.438Z,78.63
2019-05-04T19:30:35.176Z,78.76
2019-05-04T19:35:38.186Z,79.12
2019-05-04T19:40:44.934Z,78.97
2019-05-04T19:46:08.859Z,79.42
2019-05-04T19:51:11.795Z,79.57
2019-05-04T19:56:16.334Z,79.61
2019-05-04T20:01:19.203Z,79.61
2019-05-04T20:06:30.970Z,79.89
2019-05-04T20:11:59.394Z,80.11
2019-05-04T20:17:14.189Z,80.01
2019-05-04T20:22:18.395Z,80.12
2019-05-04T20:27:21.233Z,80.32
2019-05-04T20:32:25.461Z,80.10
2019-05-04T20:37:28.534Z,79.84
2019-05-04T20:42:31.291Z,80.10
2019-05-04T20:47:54.911Z,80.38
2019-05-04T20:53:10.003Z,80.54
2019-05-04T20:58:14.930Z,80.55
2019-05-04T21:03:26.634Z,80.68
2019-05-04T21:08:29.559Z,80.82
2019-05-04T21:13:32.336Z,80.69
2019-05-04T21:18:44.681Z,80.78
2019-05-04T21:23:47.474Z,80.86
2019-05-04T21:28:50.181Z,80.85
2019-05-04T21:33:55.078Z,80.76
2019-05-04T21:38:57.800Z,80.84
2019-05-04T21:44:04.190Z,80.87
2019-05-04T21:49:25.349Z,80.89
2019-05-04T21:54:28.269Z,80.92
2019-05-04T21:59:31.019Z,80.96
2019-05-04T22:04:37.955Z,80.80
2019-05-04T22:09:40.735Z,80.65
2019-05-04T22:14:44.720Z,80.63
2019-05-04T22:19:47.985Z,80.62
2019-05-04T22:24:50.942Z,80.62
2019-05-04T22:29:56.026Z,80.31
2019-05-04T22:34:58.385Z,80.30
2019-05-04T22:40:01.265Z,80.43
2019-05-04T22:45:05.330Z,80.49
2019-05-04T22:50:09.295Z,80.70
2019-05-04T22:55:24.172Z,80.84
2019-05-04T23:00:37.691Z,80.69
2019-05-04T23:05:40.485Z,80.81
2019-05-04T23:10:46.366Z,80.86
2019-05-04T23:15:48.081Z,80.63
2019-05-04T23:20:50.816Z,80.80
2019-05-04T23:25:53.541Z,80.87
2019-05-04T23:30:56.354Z,80.96
2019-05-04T23:35:59.126Z,80.89
2019-05-04T23:41:01.946Z,80.93
2019-05-04T23:46:04.779Z,80.79
2019-05-04T23:51:07.528Z,80.70
2019-05-04T23:56:10.256Z,80.61
